sensor_id;sensor_type;location;lat;lon;timestamp;P1;durP1;ratioP1;P2;durP2;ratioP2
24677;SDS011;12800;53.094;8.778;2023-11-19T00:02:10;1.67;;;1.57;;
24677;SDS011;12800;53.094;8.778;2023-11-19T00:04:38;2.30;;;2.10;;
24677;SDS011;12800;53.094;8.778;2023-11-19T00:07:05;1.53;;;1.43;;
24677;SDS011;12800;53.094;8.778;2023-11-19T00:09:32;1.97;;;1.87;;
24677;SDS011;12800;53.094;8.778;2023-11-19T00:12:02;2.30;;;2.10;;
24677;SDS011;12800;53.094;8.778;2023-11-19T00:14:29;3.20;;;2.10;;
24677;SDS011;12800;53.094;8.778;2023-11-19T00:16:55;3.13;;;2.20;;
24677;SDS011;12800;53.094;8.778;2023-11-19T00:19:20;2.40;;;2.20;;
24677;SDS011;12800;53.094;8.778;2023-11-19T00:21:46;2.33;;;2.20;;
24677;SDS011;12800;53.094;8.778;2023-11-19T00:24:12;2.53;;;2.33;;
24677;SDS011;12800;53.094;8.778;2023-11-19T00:26:38;2.77;;;2.50;;
24677;SDS011;12800;53.094;8.778;2023-11-19T00:29:04;2.83;;;2.63;;
24677;SDS011;12800;53.094;8.778;2023-11-19T00:31:31;2.50;;;2.30;;
24677;SDS011;12800;53.094;8.778;2023-11-19T00:33:56;3.30;;;2.93;;
24677;SDS011;12800;53.094;8.778;2023-11-19T00:36:22;3.40;;;3.10;;
24677;SDS011;12800;53.094;8.778;2023-11-19T00:38:49;3.83;;;3.00;;
24677;SDS011;12800;53.094;8.778;2023-11-19T00:41:15;3.77;;;3.37;;
24677;SDS011;12800;53.094;8.778;2023-11-19T00:43:42;3.33;;;3.03;;
24677;SDS011;12800;53.094;8.778;2023-11-19T00:46:08;4.97;;;3.90;;
24677;SDS011;12800;53.094;8.778;2023-11-19T00:48:35;4.70;;;3.53;;
24677;SDS011;12800;53.094;8.778;2023-11-19T00:51:01;6.07;;;3.37;;
24677;SDS011;12800;53.094;8.778;2023-11-19T00:53:27;4.17;;;3.70;;
24677;SDS011;12800;53.094;8.778;2023-11-19T00:55:53;5.13;;;4.03;;
24677;SDS011;12800;53.094;8.778;2023-11-19T00:58:18;4.83;;;3.70;;
24677;SDS011;12800;53.094;8.778;2023-11-19T01:00:44;5.47;;;4.13;;
24677;SDS011;12800;53.094;8.778;2023-11-19T01:03:10;4.33;;;3.83;;
24677;SDS011;12800;53.094;8.778;2023-11-19T01:05:36;5.17;;;3.60;;
24677;SDS011;12800;53.094;8.778;2023-11-19T01:08:02;4.20;;;3.80;;
24677;SDS011;12800;53.094;8.778;2023-11-19T01:10:29;5.63;;;4.10;;
24677;SDS011;12800;53.094;8.778;2023-11-19T01:12:55;4.20;;;3.77;;
24677;SDS011;12800;53.094;8.778;2023-11-19T01:15:20;4.47;;;4.07;;
24677;SDS011;12800;53.094;8.778;2023-11-19T01:17:46;5.23;;;4.47;;
24677;SDS011;12800;53.094;8.778;2023-11-19T01:20:12;5.20;;;4.70;;
24677;SDS011;12800;53.094;8.778;2023-11-19T01:22:38;5.00;;;4.60;;
24677;SDS011;12800;53.094;8.778;2023-11-19T01:25:05;4.67;;;4.17;;
24677;SDS011;12800;53.094;8.778;2023-11-19T01:27:31;11.77;;;9.10;;
24677;SDS011;12800;53.094;8.778;2023-11-19T01:29:59;5.53;;;5.03;;
24677;SDS011;12800;53.094;8.778;2023-11-19T01:32:28;11.33;;;8.57;;
24677;SDS011;12800;53.094;8.778;2023-11-19T01:34:54;7.03;;;6.40;;
24677;SDS011;12800;53.094;8.778;2023-11-19T01:37:20;10.40;;;8.53;;
24677;SDS011;12800;53.094;8.778;2023-11-19T01:39:45;12.70;;;9.63;;
24677;SDS011;12800;53.094;8.778;2023-11-19T01:42:11;9.13;;;7.93;;
24677;SDS011;12800;53.094;8.778;2023-11-19T01:44:40;6.93;;;6.23;;
24677;SDS011;12800;53.094;8.778;2023-11-19T01:47:06;5.63;;;5.13;;
24677;SDS011;12800;53.094;8.778;2023-11-19T01:49:33;8.03;;;5.87;;
24677;SDS011;12800;53.094;8.778;2023-11-19T01:51:59;5.77;;;5.27;;
24677;SDS011;12800;53.094;8.778;2023-11-19T01:54:25;6.97;;;6.00;;
24677;SDS011;12800;53.094;8.778;2023-11-19T01:56:52;7.20;;;6.50;;
24677;SDS011;12800;53.094;8.778;2023-11-19T01:59:21;6.90;;;6.23;;
24677;SDS011;12800;53.094;8.778;2023-11-19T02:01:51;7.50;;;6.17;;
24677;SDS011;12800;53.094;8.778;2023-11-19T02:04:18;6.60;;;6.00;;
24677;SDS011;12800;53.094;8.778;2023-11-19T02:06:47;6.10;;;5.53;;
24677;SDS011;12800;53.094;8.778;2023-11-19T02:09:17;8.40;;;6.77;;
24677;SDS011;12800;53.094;8.778;2023-11-19T02:11:44;8.40;;;6.73;;
24677;SDS011;12800;53.094;8.778;2023-11-19T02:14:14;7.73;;;6.70;;
24677;SDS011;12800;53.094;8.778;2023-11-19T02:16:40;8.07;;;7.27;;
24677;SDS011;12800;53.094;8.778;2023-11-19T02:19:06;8.47;;;7.57;;
24677;SDS011;12800;53.094;8.778;2023-11-19T02:21:31;8.03;;;7.23;;
24677;SDS011;12800;53.094;8.778;2023-11-19T02:23:57;7.27;;;6.57;;
24677;SDS011;12800;53.094;8.778;2023-11-19T02:26:28;8.43;;;7.63;;
24677;SDS011;12800;53.094;8.778;2023-11-19T02:29:03;8.87;;;8.00;;
24677;SDS011;12800;53.094;8.778;2023-11-19T02:31:29;7.57;;;6.77;;
24677;SDS011;12800;53.094;8.778;2023-11-19T02:33:55;9.10;;;8.20;;
24677;SDS011;12800;53.094;8.778;2023-11-19T02:36:20;9.47;;;8.53;;
24677;SDS011;12800;53.094;8.778;2023-11-19T02:38:46;10.23;;;8.63;;
24677;SDS011;12800;53.094;8.778;2023-11-19T02:41:13;10.47;;;9.37;;
24677;SDS011;12800;53.094;8.778;2023-11-19T02:43:39;13.30;;;10.30;;
24677;SDS011;12800;53.094;8.778;2023-11-19T02:46:05;15.83;;;10.37;;
24677;SDS011;12800;53.094;8.778;2023-11-19T02:48:34;12.37;;;10.97;;
24677;SDS011;12800;53.094;8.778;2023-11-19T02:51:03;13.97;;;11.60;;
24677;SDS011;12800;53.094;8.778;2023-11-19T02:53:30;13.00;;;10.73;;
24677;SDS011;12800;53.094;8.778;2023-11-19T02:55:56;14.60;;;11.23;;
24677;SDS011;12800;53.094;8.778;2023-11-19T02:58:36;12.47;;;11.17;;
24677;SDS011;12800;53.094;8.778;2023-11-19T03:01:03;13.90;;;11.40;;
24677;SDS011;12800;53.094;8.778;2023-11-19T03:03:37;12.97;;;10.90;;
24677;SDS011;12800;53.094;8.778;2023-11-19T03:06:05;14.43;;;10.97;;
24677;SDS011;12800;53.094;8.778;2023-11-19T03:08:32;12.43;;;11.23;;
24677;SDS011;12800;53.094;8.778;2023-11-19T03:11:00;12.57;;;11.27;;
24677;SDS011;12800;53.094;8.778;2023-11-19T03:13:25;12.77;;;10.83;;
24677;SDS011;12800;53.094;8.778;2023-11-19T03:15:52;12.30;;;10.87;;
24677;SDS011;12800;53.094;8.778;2023-11-19T03:18:20;12.73;;;10.23;;
24677;SDS011;12800;53.094;8.778;2023-11-19T03:20:46;14.40;;;11.47;;
24677;SDS011;12800;53.094;8.778;2023-11-19T03:23:22;14.53;;;10.93;;
24677;SDS011;12800;53.094;8.778;2023-11-19T03:25:48;12.20;;;10.03;;
24677;SDS011;12800;53.094;8.778;2023-11-19T03:28:13;15.40;;;10.93;;
24677;SDS011;12800;53.094;8.778;2023-11-19T03:30:42;13.17;;;10.63;;
24677;SDS011;12800;53.094;8.778;2023-11-19T03:33:08;13.40;;;10.70;;
24677;SDS011;12800;53.094;8.778;2023-11-19T03:35:36;13.07;;;10.67;;
24677;SDS011;12800;53.094;8.778;2023-11-19T03:38:05;13.73;;;10.00;;
24677;SDS011;12800;53.094;8.778;2023-11-19T03:40:31;17.87;;;10.47;;
24677;SDS011;12800;53.094;8.778;2023-11-19T03:42:56;17.90;;;11.87;;
24677;SDS011;12800;53.094;8.778;2023-11-19T03:45:23;13.10;;;10.90;;
24677;SDS011;12800;53.094;8.778;2023-11-19T03:47:50;16.63;;;11.53;;
24677;SDS011;12800;53.094;8.778;2023-11-19T03:50:15;13.80;;;11.27;;
24677;SDS011;12800;53.094;8.778;2023-11-19T03:52:41;14.23;;;10.67;;
24677;SDS011;12800;53.094;8.778;2023-11-19T03:55:07;17.07;;;11.17;;
24677;SDS011;12800;53.094;8.778;2023-11-19T03:57:37;14.70;;;10.33;;
24677;SDS011;12800;53.094;8.778;2023-11-19T04:00:03;15.13;;;10.60;;
24677;SDS011;12800;53.094;8.778;2023-11-19T04:02:39;16.47;;;10.73;;
24677;SDS011;12800;53.094;8.778;2023-11-19T04:05:05;16.40;;;10.97;;
24677;SDS011;12800;53.094;8.778;2023-11-19T04:07:31;15.37;;;10.80;;
24677;SDS011;12800;53.094;8.778;2023-11-19T04:09:57;17.23;;;10.43;;
24677;SDS011;12800;53.094;8.778;2023-11-19T04:12:23;18.17;;;10.53;;
24677;SDS011;12800;53.094;8.778;2023-11-19T04:14:49;24.00;;;11.37;;
24677;SDS011;12800;53.094;8.778;2023-11-19T04:17:15;15.43;;;10.67;;
24677;SDS011;12800;53.094;8.778;2023-11-19T04:19:40;19.10;;;11.73;;
24677;SDS011;12800;53.094;8.778;2023-11-19T04:22:09;18.07;;;11.33;;
24677;SDS011;12800;53.094;8.778;2023-11-19T04:24:35;19.40;;;10.73;;
24677;SDS011;12800;53.094;8.778;2023-11-19T04:27:01;19.97;;;11.20;;
24677;SDS011;12800;53.094;8.778;2023-11-19T04:29:29;19.23;;;11.00;;
24677;SDS011;12800;53.094;8.778;2023-11-19T04:31:55;14.37;;;11.13;;
24677;SDS011;12800;53.094;8.778;2023-11-19T04:34:21;14.70;;;10.40;;
24677;SDS011;12800;53.094;8.778;2023-11-19T04:36:47;20.17;;;11.70;;
24677;SDS011;12800;53.094;8.778;2023-11-19T04:39:12;15.33;;;11.20;;
24677;SDS011;12800;53.094;8.778;2023-11-19T04:41:49;18.80;;;11.20;;
24677;SDS011;12800;53.094;8.778;2023-11-19T04:44:18;20.10;;;11.57;;
24677;SDS011;12800;53.094;8.778;2023-11-19T04:46:43;17.70;;;10.57;;
24677;SDS011;12800;53.094;8.778;2023-11-19T04:49:10;16.10;;;10.40;;
24677;SDS011;12800;53.094;8.778;2023-11-19T04:51:39;18.40;;;10.90;;
24677;SDS011;12800;53.094;8.778;2023-11-19T04:54:09;24.87;;;10.70;;
24677;SDS011;12800;53.094;8.778;2023-11-19T04:56:38;18.37;;;10.23;;
24677;SDS011;12800;53.094;8.778;2023-11-19T04:59:04;17.43;;;9.90;;
24677;SDS011;12800;53.094;8.778;2023-11-19T05:01:33;22.30;;;10.33;;
24677;SDS011;12800;53.094;8.778;2023-11-19T05:04:00;19.03;;;10.03;;
24677;SDS011;12800;53.094;8.778;2023-11-19T05:06:27;16.93;;;9.77;;
24677;SDS011;12800;53.094;8.778;2023-11-19T05:08:56;14.73;;;9.57;;
24677;SDS011;12800;53.094;8.778;2023-11-19T05:11:43;15.30;;;9.33;;
24677;SDS011;12800;53.094;8.778;2023-11-19T05:14:08;16.93;;;9.33;;
24677;SDS011;12800;53.094;8.778;2023-11-19T05:16:34;17.50;;;9.63;;
24677;SDS011;12800;53.094;8.778;2023-11-19T05:19:00;26.27;;;9.97;;
24677;SDS011;12800;53.094;8.778;2023-11-19T05:21:25;22.27;;;8.70;;
24677;SDS011;12800;53.094;8.778;2023-11-19T05:23:51;19.53;;;8.80;;
24677;SDS011;12800;53.094;8.778;2023-11-19T05:26:18;18.27;;;8.50;;
24677;SDS011;12800;53.094;8.778;2023-11-19T05:28:44;16.77;;;8.80;;
24677;SDS011;12800;53.094;8.778;2023-11-19T05:31:10;15.77;;;6.93;;
24677;SDS011;12800;53.094;8.778;2023-11-19T05:33:35;18.57;;;7.67;;
24677;SDS011;12800;53.094;8.778;2023-11-19T05:36:01;15.30;;;6.70;;
24677;SDS011;12800;53.094;8.778;2023-11-19T05:38:28;18.33;;;7.13;;
24677;SDS011;12800;53.094;8.778;2023-11-19T05:40:54;24.37;;;7.40;;
24677;SDS011;12800;53.094;8.778;2023-11-19T05:43:20;17.10;;;6.93;;
24677;SDS011;12800;53.094;8.778;2023-11-19T05:45:46;17.23;;;7.37;;
24677;SDS011;12800;53.094;8.778;2023-11-19T05:48:12;19.63;;;5.97;;
24677;SDS011;12800;53.094;8.778;2023-11-19T05:50:38;21.33;;;6.83;;
24677;SDS011;12800;53.094;8.778;2023-11-19T05:53:04;15.23;;;4.97;;
24677;SDS011;12800;53.094;8.778;2023-11-19T05:55:35;17.97;;;6.00;;
24677;SDS011;12800;53.094;8.778;2023-11-19T05:58:11;15.50;;;6.17;;
24677;SDS011;12800;53.094;8.778;2023-11-19T06:00:40;17.47;;;5.23;;
24677;SDS011;12800;53.094;8.778;2023-11-19T06:03:07;20.03;;;6.37;;
24677;SDS011;12800;53.094;8.778;2023-11-19T06:05:32;22.77;;;5.93;;
24677;SDS011;12800;53.094;8.778;2023-11-19T06:07:58;19.80;;;6.07;;
24677;SDS011;12800;53.094;8.778;2023-11-19T06:10:24;17.30;;;4.07;;
24677;SDS011;12800;53.094;8.778;2023-11-19T06:12:55;20.27;;;4.73;;
24677;SDS011;12800;53.094;8.778;2023-11-19T06:15:27;27.40;;;5.83;;
24677;SDS011;12800;53.094;8.778;2023-11-19T06:17:53;20.63;;;5.37;;
24677;SDS011;12800;53.094;8.778;2023-11-19T06:20:20;25.10;;;5.07;;
24677;SDS011;12800;53.094;8.778;2023-11-19T06:22:45;32.97;;;9.47;;
24677;SDS011;12800;53.094;8.778;2023-11-19T06:25:11;15.37;;;4.67;;
24677;SDS011;12800;53.094;8.778;2023-11-19T06:27:40;27.77;;;5.47;;
24677;SDS011;12800;53.094;8.778;2023-11-19T06:30:06;22.50;;;4.83;;
24677;SDS011;12800;53.094;8.778;2023-11-19T06:32:32;22.90;;;4.90;;
24677;SDS011;12800;53.094;8.778;2023-11-19T06:34:58;23.43;;;4.60;;
24677;SDS011;12800;53.094;8.778;2023-11-19T06:37:23;19.47;;;5.00;;
24677;SDS011;12800;53.094;8.778;2023-11-19T06:39:49;26.07;;;4.50;;
24677;SDS011;12800;53.094;8.778;2023-11-19T06:42:14;22.80;;;4.30;;
24677;SDS011;12800;53.094;8.778;2023-11-19T06:44:40;21.93;;;5.70;;
24677;SDS011;12800;53.094;8.778;2023-11-19T06:47:06;20.20;;;4.45;;
24677;SDS011;12800;53.094;8.778;2023-11-19T06:49:31;27.63;;;5.27;;
24677;SDS011;12800;53.094;8.778;2023-11-19T06:51:57;27.10;;;6.83;;
24677;SDS011;12800;53.094;8.778;2023-11-19T06:54:23;31.67;;;6.73;;
24677;SDS011;12800;53.094;8.778;2023-11-19T06:56:49;34.92;;;6.13;;
24677;SDS011;12800;53.094;8.778;2023-11-19T06:59:14;26.13;;;5.40;;
24677;SDS011;12800;53.094;8.778;2023-11-19T07:01:40;27.93;;;6.60;;
24677;SDS011;12800;53.094;8.778;2023-11-19T07:04:10;16.67;;;4.57;;
24677;SDS011;12800;53.094;8.778;2023-11-19T07:06:38;26.33;;;5.83;;
24677;SDS011;12800;53.094;8.778;2023-11-19T07:09:07;22.07;;;5.37;;
24677;SDS011;12800;53.094;8.778;2023-11-19T07:11:37;20.80;;;4.90;;
24677;SDS011;12800;53.094;8.778;2023-11-19T07:14:07;20.02;;;5.10;;
24677;SDS011;12800;53.094;8.778;2023-11-19T07:16:33;28.03;;;5.20;;
24677;SDS011;12800;53.094;8.778;2023-11-19T07:19:02;19.43;;;4.40;;
24677;SDS011;12800;53.094;8.778;2023-11-19T07:21:30;21.40;;;4.37;;
24677;SDS011;12800;53.094;8.778;2023-11-19T07:23:56;25.90;;;5.53;;
24677;SDS011;12800;53.094;8.778;2023-11-19T07:26:22;27.73;;;6.17;;
24677;SDS011;12800;53.094;8.778;2023-11-19T07:28:48;25.03;;;5.40;;
24677;SDS011;12800;53.094;8.778;2023-11-19T07:31:14;29.27;;;5.43;;
24677;SDS011;12800;53.094;8.778;2023-11-19T07:33:40;17.65;;;4.25;;
24677;SDS011;12800;53.094;8.778;2023-11-19T07:36:08;21.95;;;6.05;;
24677;SDS011;12800;53.094;8.778;2023-11-19T07:38:34;22.38;;;4.47;;
24677;SDS011;12800;53.094;8.778;2023-11-19T07:41:00;27.00;;;5.07;;
24677;SDS011;12800;53.094;8.778;2023-11-19T07:43:26;22.53;;;4.27;;
24677;SDS011;12800;53.094;8.778;2023-11-19T07:45:51;22.93;;;4.57;;
24677;SDS011;12800;53.094;8.778;2023-11-19T07:48:17;24.97;;;4.40;;
24677;SDS011;12800;53.094;8.778;2023-11-19T07:50:47;23.53;;;4.27;;
24677;SDS011;12800;53.094;8.778;2023-11-19T07:53:17;30.92;;;5.18;;
24677;SDS011;12800;53.094;8.778;2023-11-19T07:55:43;23.83;;;4.40;;
24677;SDS011;12800;53.094;8.778;2023-11-19T07:58:09;23.07;;;4.30;;
24677;SDS011;12800;53.094;8.778;2023-11-19T08:00:35;25.07;;;4.43;;
24677;SDS011;12800;53.094;8.778;2023-11-19T08:03:01;24.50;;;5.00;;
24677;SDS011;12800;53.094;8.778;2023-11-19T08:05:26;19.23;;;4.47;;
24677;SDS011;12800;53.094;8.778;2023-11-19T08:07:52;30.37;;;5.10;;
24677;SDS011;12800;53.094;8.778;2023-11-19T08:10:18;18.67;;;3.53;;
24677;SDS011;12800;53.094;8.778;2023-11-19T08:12:44;28.40;;;4.97;;
24677;SDS011;12800;53.094;8.778;2023-11-19T08:15:10;22.40;;;4.20;;
24677;SDS011;12800;53.094;8.778;2023-11-19T08:17:36;20.97;;;5.03;;
24677;SDS011;12800;53.094;8.778;2023-11-19T08:20:02;26.70;;;4.43;;
24677;SDS011;12800;53.094;8.778;2023-11-19T08:22:30;24.07;;;4.97;;
24677;SDS011;12800;53.094;8.778;2023-11-19T08:24:56;29.27;;;5.27;;
24677;SDS011;12800;53.094;8.778;2023-11-19T08:27:22;22.38;;;5.07;;
24677;SDS011;12800;53.094;8.778;2023-11-19T08:29:54;21.87;;;4.70;;
24677;SDS011;12800;53.094;8.778;2023-11-19T08:32:24;22.63;;;4.73;;
24677;SDS011;12800;53.094;8.778;2023-11-19T08:34:50;23.47;;;4.83;;
24677;SDS011;12800;53.094;8.778;2023-11-19T08:37:16;26.40;;;5.80;;
24677;SDS011;12800;53.094;8.778;2023-11-19T08:39:46;22.33;;;5.87;;
24677;SDS011;12800;53.094;8.778;2023-11-19T08:42:12;24.80;;;5.20;;
24677;SDS011;12800;53.094;8.778;2023-11-19T08:44:38;25.70;;;4.37;;
24677;SDS011;12800;53.094;8.778;2023-11-19T08:47:04;21.88;;;4.78;;
24677;SDS011;12800;53.094;8.778;2023-11-19T08:49:29;18.05;;;4.30;;
24677;SDS011;12800;53.094;8.778;2023-11-19T08:51:55;24.77;;;4.27;;
24677;SDS011;12800;53.094;8.778;2023-11-19T08:54:21;20.95;;;4.35;;
24677;SDS011;12800;53.094;8.778;2023-11-19T08:56:47;22.40;;;4.63;;
24677;SDS011;12800;53.094;8.778;2023-11-19T08:59:13;21.83;;;5.25;;
24677;SDS011;12800;53.094;8.778;2023-11-19T09:01:40;29.60;;;5.00;;
24677;SDS011;12800;53.094;8.778;2023-11-19T09:04:06;28.50;;;4.95;;
24677;SDS011;12800;53.094;8.778;2023-11-19T09:06:32;22.50;;;5.53;;
24677;SDS011;12800;53.094;8.778;2023-11-19T09:08:57;27.00;;;5.22;;
24677;SDS011;12800;53.094;8.778;2023-11-19T09:11:27;28.98;;;4.60;;
24677;SDS011;12800;53.094;8.778;2023-11-19T09:13:52;26.33;;;5.18;;
24677;SDS011;12800;53.094;8.778;2023-11-19T09:16:18;31.02;;;5.35;;
24677;SDS011;12800;53.094;8.778;2023-11-19T09:18:44;26.65;;;5.30;;
24677;SDS011;12800;53.094;8.778;2023-11-19T09:21:12;28.20;;;4.65;;
24677;SDS011;12800;53.094;8.778;2023-11-19T09:23:38;29.35;;;5.43;;
24677;SDS011;12800;53.094;8.778;2023-11-19T09:26:13;21.17;;;5.13;;
24677;SDS011;12800;53.094;8.778;2023-11-19T09:28:39;24.60;;;7.90;;
24677;SDS011;12800;53.094;8.778;2023-11-19T09:31:17;25.23;;;5.95;;
24677;SDS011;12800;53.094;8.778;2023-11-19T09:33:43;24.85;;;5.05;;
24677;SDS011;12800;53.094;8.778;2023-11-19T09:36:11;23.48;;;5.22;;
24677;SDS011;12800;53.094;8.778;2023-11-19T09:38:38;22.88;;;3.92;;
24677;SDS011;12800;53.094;8.778;2023-11-19T09:41:09;26.67;;;5.37;;
24677;SDS011;12800;53.094;8.778;2023-11-19T09:43:37;25.30;;;4.63;;
24677;SDS011;12800;53.094;8.778;2023-11-19T09:46:04;28.33;;;5.85;;
24677;SDS011;12800;53.094;8.778;2023-11-19T09:48:34;25.90;;;4.88;;
24677;SDS011;12800;53.094;8.778;2023-11-19T09:51:01;31.42;;;6.05;;
24677;SDS011;12800;53.094;8.778;2023-11-19T09:53:27;33.47;;;5.13;;
24677;SDS011;12800;53.094;8.778;2023-11-19T09:55:53;23.73;;;4.78;;
24677;SDS011;12800;53.094;8.778;2023-11-19T09:58:20;23.50;;;4.50;;
24677;SDS011;12800;53.094;8.778;2023-11-19T10:00:47;24.55;;;5.72;;
24677;SDS011;12800;53.094;8.778;2023-11-19T10:03:13;16.67;;;4.18;;
24677;SDS011;12800;53.094;8.778;2023-11-19T10:05:39;24.60;;;4.50;;
24677;SDS011;12800;53.094;8.778;2023-11-19T10:08:05;24.23;;;5.07;;
24677;SDS011;12800;53.094;8.778;2023-11-19T10:10:32;26.05;;;5.50;;
24677;SDS011;12800;53.094;8.778;2023-11-19T10:12:59;22.13;;;5.03;;
24677;SDS011;12800;53.094;8.778;2023-11-19T10:15:26;25.67;;;5.63;;
24677;SDS011;12800;53.094;8.778;2023-11-19T10:17:52;24.70;;;5.15;;
24677;SDS011;12800;53.094;8.778;2023-11-19T10:20:23;24.27;;;5.75;;
24677;SDS011;12800;53.094;8.778;2023-11-19T10:22:51;22.02;;;5.82;;
24677;SDS011;12800;53.094;8.778;2023-11-19T10:25:27;30.63;;;8.07;;
24677;SDS011;12800;53.094;8.778;2023-11-19T10:27:54;32.38;;;9.52;;
24677;SDS011;12800;53.094;8.778;2023-11-19T10:30:24;23.33;;;7.97;;
24677;SDS011;12800;53.094;8.778;2023-11-19T10:33:10;30.85;;;5.30;;
24677;SDS011;12800;53.094;8.778;2023-11-19T10:35:51;21.37;;;5.60;;
24677;SDS011;12800;53.094;8.778;2023-11-19T10:38:24;19.87;;;5.13;;
24677;SDS011;12800;53.094;8.778;2023-11-19T10:40:51;16.35;;;4.18;;
24677;SDS011;12800;53.094;8.778;2023-11-19T10:43:17;25.10;;;4.53;;
24677;SDS011;12800;53.094;8.778;2023-11-19T10:45:44;24.10;;;6.30;;
24677;SDS011;12800;53.094;8.778;2023-11-19T10:48:10;30.23;;;9.07;;
24677;SDS011;12800;53.094;8.778;2023-11-19T10:50:37;25.00;;;6.07;;
24677;SDS011;12800;53.094;8.778;2023-11-19T10:53:05;22.17;;;4.93;;
24677;SDS011;12800;53.094;8.778;2023-11-19T10:55:34;25.00;;;5.13;;
24677;SDS011;12800;53.094;8.778;2023-11-19T10:58:04;22.10;;;4.43;;
24677;SDS011;12800;53.094;8.778;2023-11-19T11:00:37;25.15;;;5.22;;
24677;SDS011;12800;53.094;8.778;2023-11-19T11:03:25;22.23;;;4.53;;
24677;SDS011;12800;53.094;8.778;2023-11-19T11:05:52;19.75;;;6.28;;
24677;SDS011;12800;53.094;8.778;2023-11-19T11:08:18;54.10;;;25.00;;
24677;SDS011;12800;53.094;8.778;2023-11-19T11:10:46;25.33;;;5.60;;
24677;SDS011;12800;53.094;8.778;2023-11-19T11:13:17;18.70;;;5.68;;
24677;SDS011;12800;53.094;8.778;2023-11-19T11:15:44;21.33;;;4.55;;
24677;SDS011;12800;53.094;8.778;2023-11-19T11:18:12;18.33;;;4.88;;
24677;SDS011;12800;53.094;8.778;2023-11-19T11:20:38;27.95;;;5.20;;
24677;SDS011;12800;53.094;8.778;2023-11-19T11:28:36;17.42;;;3.92;;
24677;SDS011;12800;53.094;8.778;2023-11-19T11:39:26;26.77;;;4.93;;
24677;SDS011;12800;53.094;8.778;2023-11-19T11:42:39;23.63;;;5.05;;
24677;SDS011;12800;53.094;8.778;2023-11-19T11:44:58;21.48;;;5.13;;
24677;SDS011;12800;53.094;8.778;2023-11-19T11:50:14;20.08;;;4.80;;
24677;SDS011;12800;53.094;8.778;2023-11-19T11:55:25;20.05;;;5.00;;
24677;SDS011;12800;53.094;8.778;2023-11-19T11:57:51;25.15;;;4.70;;
24677;SDS011;12800;53.094;8.778;2023-11-19T12:00:26;22.45;;;5.00;;
24677;SDS011;12800;53.094;8.778;2023-11-19T12:02:56;28.42;;;5.72;;
24677;SDS011;12800;53.094;8.778;2023-11-19T12:05:24;32.97;;;5.35;;
24677;SDS011;12800;53.094;8.778;2023-11-19T12:08:24;28.85;;;5.70;;
24677;SDS011;12800;53.094;8.778;2023-11-19T12:10:46;24.60;;;4.90;;
24677;SDS011;12800;53.094;8.778;2023-11-19T12:13:13;24.73;;;5.20;;
24677;SDS011;12800;53.094;8.778;2023-11-19T12:18:23;29.27;;;5.57;;
24677;SDS011;12800;53.094;8.778;2023-11-19T12:20:53;20.08;;;4.10;;
24677;SDS011;12800;53.094;8.778;2023-11-19T12:23:19;18.45;;;5.07;;
24677;SDS011;12800;53.094;8.778;2023-11-19T12:25:45;28.30;;;5.13;;
24677;SDS011;12800;53.094;8.778;2023-11-19T12:28:12;24.98;;;5.40;;
24677;SDS011;12800;53.094;8.778;2023-11-19T12:30:38;26.80;;;5.53;;
24677;SDS011;12800;53.094;8.778;2023-11-19T12:33:08;28.60;;;5.88;;
24677;SDS011;12800;53.094;8.778;2023-11-19T12:35:46;19.27;;;4.10;;
24677;SDS011;12800;53.094;8.778;2023-11-19T12:38:19;28.35;;;6.70;;
24677;SDS011;12800;53.094;8.778;2023-11-19T12:41:02;23.40;;;4.45;;
24677;SDS011;12800;53.094;8.778;2023-11-19T12:43:31;15.52;;;3.80;;
24677;SDS011;12800;53.094;8.778;2023-11-19T12:45:59;21.42;;;4.47;;
24677;SDS011;12800;53.094;8.778;2023-11-19T12:48:25;42.40;;;17.45;;
24677;SDS011;12800;53.094;8.778;2023-11-19T12:50:54;17.70;;;5.50;;
24677;SDS011;12800;53.094;8.778;2023-11-19T12:53:25;27.00;;;5.57;;
24677;SDS011;12800;53.094;8.778;2023-11-19T12:55:51;18.42;;;4.90;;
24677;SDS011;12800;53.094;8.778;2023-11-19T12:58:36;22.52;;;4.38;;
24677;SDS011;12800;53.094;8.778;2023-11-19T13:01:08;13.68;;;4.13;;
24677;SDS011;12800;53.094;8.778;2023-11-19T13:03:37;21.67;;;3.63;;
24677;SDS011;12800;53.094;8.778;2023-11-19T13:08:46;12.35;;;3.15;;
24677;SDS011;12800;53.094;8.778;2023-11-19T13:11:38;11.63;;;1.52;;
24677;SDS011;12800;53.094;8.778;2023-11-19T13:14:05;5.83;;;1.57;;
24677;SDS011;12800;53.094;8.778;2023-11-19T13:16:33;2.80;;;1.83;;
24677;SDS011;12800;53.094;8.778;2023-11-19T13:19:01;2.00;;;0.60;;
24677;SDS011;12800;53.094;8.778;2023-11-19T13:21:27;4.50;;;0.95;;
24677;SDS011;12800;53.094;8.778;2023-11-19T13:23:54;2.60;;;0.77;;
24677;SDS011;12800;53.094;8.778;2023-11-19T13:26:20;2.37;;;0.87;;
24677;SDS011;12800;53.094;8.778;2023-11-19T13:28:46;3.78;;;1.00;;
24677;SDS011;12800;53.094;8.778;2023-11-19T13:31:12;1.80;;;0.80;;
24677;SDS011;12800;53.094;8.778;2023-11-19T13:33:37;4.83;;;0.80;;
24677;SDS011;12800;53.094;8.778;2023-11-19T13:36:04;2.50;;;0.97;;
24677;SDS011;12800;53.094;8.778;2023-11-19T13:38:34;4.90;;;2.03;;
24677;SDS011;12800;53.094;8.778;2023-11-19T13:41:03;5.73;;;1.40;;
24677;SDS011;12800;53.094;8.778;2023-11-19T13:43:29;5.60;;;1.20;;
24677;SDS011;12800;53.094;8.778;2023-11-19T13:45:55;12.33;;;2.57;;
24677;SDS011;12800;53.094;8.778;2023-11-19T13:48:23;3.37;;;1.20;;
24677;SDS011;12800;53.094;8.778;2023-11-19T13:50:49;8.77;;;1.33;;
24677;SDS011;12800;53.094;8.778;2023-11-19T13:53:14;5.47;;;1.80;;
24677;SDS011;12800;53.094;8.778;2023-11-19T13:55:41;5.03;;;1.30;;
24677;SDS011;12800;53.094;8.778;2023-11-19T13:58:07;10.40;;;2.63;;
24677;SDS011;12800;53.094;8.778;2023-11-19T14:00:32;12.87;;;2.73;;
24677;SDS011;12800;53.094;8.778;2023-11-19T14:02:58;12.30;;;2.53;;
24677;SDS011;12800;53.094;8.778;2023-11-19T14:05:24;12.70;;;3.60;;
24677;SDS011;12800;53.094;8.778;2023-11-19T14:07:50;12.10;;;3.57;;
24677;SDS011;12800;53.094;8.778;2023-11-19T14:10:16;12.47;;;3.20;;
24677;SDS011;12800;53.094;8.778;2023-11-19T14:12:42;17.63;;;3.60;;
24677;SDS011;12800;53.094;8.778;2023-11-19T14:15:08;17.00;;;3.57;;
24677;SDS011;12800;53.094;8.778;2023-11-19T14:17:37;17.77;;;3.63;;
24677;SDS011;12800;53.094;8.778;2023-11-19T14:20:02;23.70;;;4.67;;
24677;SDS011;12800;53.094;8.778;2023-11-19T14:22:44;17.97;;;4.23;;
24677;SDS011;12800;53.094;8.778;2023-11-19T14:25:14;24.77;;;5.43;;
24677;SDS011;12800;53.094;8.778;2023-11-19T14:27:40;19.23;;;4.40;;
24677;SDS011;12800;53.094;8.778;2023-11-19T14:30:07;15.17;;;4.03;;
24677;SDS011;12800;53.094;8.778;2023-11-19T14:32:36;15.40;;;3.47;;
24677;SDS011;12800;53.094;8.778;2023-11-19T14:35:02;16.20;;;4.50;;
24677;SDS011;12800;53.094;8.778;2023-11-19T14:37:28;19.77;;;4.40;;
24677;SDS011;12800;53.094;8.778;2023-11-19T14:39:55;12.43;;;3.17;;
24677;SDS011;12800;53.094;8.778;2023-11-19T14:42:22;22.97;;;6.47;;
24677;SDS011;12800;53.094;8.778;2023-11-19T14:44:49;16.77;;;3.20;;
24677;SDS011;12800;53.094;8.778;2023-11-19T14:47:14;14.23;;;2.93;;
24677;SDS011;12800;53.094;8.778;2023-11-19T14:49:40;41.33;;;21.07;;
24677;SDS011;12800;53.094;8.778;2023-11-19T14:52:06;17.30;;;6.33;;
24677;SDS011;12800;53.094;8.778;2023-11-19T14:54:32;10.57;;;3.30;;
24677;SDS011;12800;53.094;8.778;2023-11-19T14:56:57;16.77;;;3.67;;
24677;SDS011;12800;53.094;8.778;2023-11-19T14:59:24;15.63;;;3.70;;
24677;SDS011;12800;53.094;8.778;2023-11-19T15:01:50;10.37;;;2.60;;
24677;SDS011;12800;53.094;8.778;2023-11-19T15:04:15;17.33;;;2.80;;